Time;durP1;ratioP1;P1;durP2;ratioP2;P2;SDS_P1;SDS_P2;PMS_P1;PMS_P2;Temp;Humidity;BMP_temperature;BMP_pressure;BME280_temperature;BME280_humidity;BME280_pressure;Samples;Min_cycle;Max_cycle;Signal;HPM_P1;HPM_P2
2020/12/11 00:00:33;;;;;;;;;;;22.00;72.60;;;;;;1842667;77;20188;-77
2020/12/11 00:03:03;;;;;;;;;;;22.00;73.00;;;;;;1851801;76;20166;-77
2020/12/11 00:05:33;;;;;;;;;;;22.00;73.20;;;;;;1861133;76;20247;-76
2020/12/11 00:08:03;;;;;;;;;;;22.00;73.70;;;;;;1865195;75;20491;-76
2020/12/11 00:10:33;;;;;;;;;;;21.90;74.00;;;;;;1869767;75;20528;-77
2020/12/11 00:13:02;;;;;;;;;;;21.90;74.30;;;;;;1869739;75;20165;-76
2020/12/11 00:15:34;;;;;;;;;;;21.80;74.00;;;;;;1843636;76;20161;-76
2020/12/11 00:18:04;;;;;;;;;;;21.90;74.60;;;;;;1852212;75;20236;-76
2020/12/11 00:20:42;;;;;;;;;;;21.80;74.40;;;;;;1833596;77;20268;-76
2020/12/11 00:23:13;;;;;;;;;;;21.90;74.40;;;;;;1850188;76;20355;-76
2020/12/11 00:25:39;;;;;;;;;;;21.90;74.40;;;;;;1851494;76;20205;-76
2020/12/11 00:28:09;;;;;;;;;;;21.90;74.50;;;;;;1823408;77;20205;-76
2020/12/11 00:30:39;;;;;;;;;;;22.00;74.50;;;;;;1852461;76;20138;-76
2020/12/11 00:33:12;;;;;;;;;;;22.00;73.70;;;;;;1824819;78;20221;-77
2020/12/11 00:35:44;;;;;;;;;;;22.00;72.50;;;;;;1857621;75;20132;-76
2020/12/11 00:38:18;;;;;;;;;;;22.10;71.60;;;;;;1837486;76;20262;-76
2020/12/11 00:40:50;;;;;;;;;;;22.20;72.10;;;;;;1832558;77;20218;-76
2020/12/11 00:43:20;;;;;;;;;;;22.20;72.60;;;;;;1833078;78;20170;-76
2020/12/11 00:45:51;;;;;;;;;;;22.30;74.40;;;;;;1841724;76;20207;-76
2020/12/11 00:48:27;;;;;;;;;;;22.30;73.80;;;;;;1838311;75;20277;-75
2020/12/11 00:50:57;;;;;;;;;;;22.40;72.00;;;;;;1825877;76;20194;-74
2020/12/11 00:53:28;;;;;;;;;;;22.40;72.70;;;;;;1845099;76;20147;-74
2020/12/11 00:55:58;;;;;;;;;;;22.50;71.30;;;;;;1853408;76;20246;-75
2020/12/11 00:58:32;;;;;;;;;;;22.50;71.50;;;;;;1819585;77;20228;-75
2020/12/11 01:01:04;;;;;;;;;;;22.60;70.80;;;;;;1845145;76;20253;-75
2020/12/11 01:03:34;;;;;;;;;;;22.60;71.20;;;;;;1836090;77;20198;-75
2020/12/11 01:06:07;;;;;;;;;;;22.70;71.90;;;;;;1836710;77;20166;-75
2020/12/11 01:08:37;;;;;;;;;;;22.70;72.20;;;;;;1835869;77;20512;-75
2020/12/11 01:11:07;;;;;;;;;;;22.80;73.30;;;;;;1843123;77;20450;-75
2020/12/11 01:13:36;;;;;;;;;;;22.80;73.10;;;;;;1828199;77;20231;-75
2020/12/11 01:16:06;;;;;;;;;;;22.90;71.40;;;;;;1840001;76;20476;-75
2020/12/11 01:18:36;;;;;;;;;;;22.90;72.90;;;;;;1849217;76;20492;-75
2020/12/11 01:21:06;;;;;;;;;;;23.00;72.90;;;;;;1845612;76;20214;-75
2020/12/11 01:23:36;;;;;;;;;;;23.10;73.60;;;;;;1845557;76;20229;-75
2020/12/11 01:26:08;;;;;;;;;;;23.20;73.30;;;;;;1824789;76;20202;-76
2020/12/11 01:28:41;;;;;;;;;;;23.20;73.60;;;;;;1782022;78;20207;-75
2020/12/11 01:31:11;;;;;;;;;;;23.20;72.80;;;;;;1800482;77;20176;-74
2020/12/11 01:33:41;;;;;;;;;;;23.30;72.90;;;;;;1804780;77;20255;-75
2020/12/11 01:36:11;;;;;;;;;;;23.30;73.30;;;;;;1834348;76;20199;-75
2020/12/11 01:38:43;;;;;;;;;;;23.40;72.70;;;;;;1822790;77;20162;-75
2020/12/11 01:41:13;;;;;;;;;;;23.40;72.40;;;;;;1829670;77;20466;-76
2020/12/11 01:43:44;;;;;;;;;;;23.40;71.80;;;;;;1853730;75;20457;-75
2020/12/11 01:46:37;;;;;;;;;;;23.50;72.60;;;;;;1852852;76;20235;-74
2020/12/11 01:48:57;;;;;;;;;;;23.60;72.20;;;;;;1843002;77;20228;-76
2020/12/11 01:51:27;;;;;;;;;;;23.70;71.10;;;;;;1865970;75;20235;-76
2020/12/11 01:53:59;;;;;;;;;;;23.70;71.80;;;;;;1850983;75;20183;-76
2020/12/11 01:56:36;;;;;;;;;;;23.80;71.30;;;;;;1851377;76;20489;-77
2020/12/11 01:59:07;;;;;;;;;;;23.90;72.30;;;;;;1845761;76;20500;-76
2020/12/11 02:01:37;;;;;;;;;;;23.90;71.80;;;;;;1847719;76;20483;-76
2020/12/11 02:04:08;;;;;;;;;;;24.00;71.80;;;;;;1836266;76;20190;-75
2020/12/11 02:06:39;;;;;;;;;;;24.10;71.60;;;;;;1858489;76;20205;-76
2020/12/11 02:09:10;;;;;;;;;;;24.10;72.20;;;;;;1849750;76;20443;-76
2020/12/11 02:11:40;;;;;;;;;;;24.20;71.90;;;;;;1839588;76;20234;-77
2020/12/11 02:14:10;;;;;;;;;;;24.20;72.30;;;;;;1841465;76;20135;-77
2020/12/11 02:16:41;;;;;;;;;;;24.20;70.70;;;;;;1825851;76;20260;-77
2020/12/11 02:19:12;;;;;;;;;;;24.30;71.10;;;;;;1817877;77;20223;-76
2020/12/11 02:21:42;;;;;;;;;;;24.40;72.60;;;;;;1824220;76;20237;-76
2020/12/11 02:24:11;;;;;;;;;;;24.40;71.60;;;;;;1853117;75;20662;-80
2020/12/11 02:26:42;;;;;;;;;;;24.40;70.80;;;;;;1854617;75;20162;-81
2020/12/11 02:29:13;;;;;;;;;;;24.50;70.50;;;;;;1813892;77;20478;-82
2020/12/11 02:31:44;;;;;;;;;;;24.40;70.00;;;;;;1787160;78;20327;-86
2020/12/11 02:34:14;;;;;;;;;;;24.50;70.60;;;;;;1787791;79;20214;-87
2020/12/11 02:36:44;;;;;;;;;;;24.50;69.70;;;;;;1825958;77;20216;-86
2020/12/11 02:39:14;;;;;;;;;;;24.60;70.50;;;;;;1857513;76;20460;-83
2020/12/11 02:41:48;;;;;;;;;;;24.60;70.90;;;;;;1844968;76;20206;-85
2020/12/11 02:44:20;;;;;;;;;;;24.70;70.80;;;;;;1833597;76;20268;-80
2020/12/11 02:46:53;;;;;;;;;;;24.80;70.50;;;;;;1781751;78;20264;-85
2020/12/11 02:49:23;;;;;;;;;;;24.80;70.60;;;;;;1795029;79;20246;-84
2020/12/11 02:52:02;;;;;;;;;;;24.80;69.70;;;;;;1870205;75;20178;-85
2020/12/11 02:54:31;;;;;;;;;;;24.80;69.40;;;;;;1854413;75;20230;-86
2020/12/11 02:57:01;;;;;;;;;;;24.90;70.40;;;;;;1862401;76;20466;-84
2020/12/11 02:59:33;;;;;;;;;;;24.90;69.90;;;;;;1847353;76;20226;-82
2020/12/11 03:02:02;;;;;;;;;;;25.00;69.90;;;;;;1857151;76;20254;-83
2020/12/11 03:04:32;;;;;;;;;;;25.10;69.90;;;;;;1842645;76;20182;-85
2020/12/11 03:07:02;;;;;;;;;;;25.10;69.30;;;;;;1838754;77;20216;-83
2020/12/11 03:09:41;;;;;;;;;;;25.20;71.80;;;;;;1863494;76;20163;-85
2020/12/11 03:12:07;;;;;;;;;;;25.30;71.00;;;;;;1847937;76;20172;-81
2020/12/11 03:14:42;;;;;;;;;;;25.40;69.60;;;;;;1860332;76;20324;-84
2020/12/11 03:17:09;;;;;;;;;;;25.40;69.40;;;;;;1861970;76;20555;-83
2020/12/11 03:19:42;;;;;;;;;;;25.50;69.30;;;;;;1864307;76;20121;-82
2020/12/11 03:22:12;;;;;;;;;;;25.60;69.00;;;;;;1860355;76;20177;-82
2020/12/11 03:24:42;;;;;;;;;;;25.70;69.60;;;;;;1880464;74;20193;-81
2020/12/11 03:27:13;;;;;;;;;;;25.80;69.10;;;;;;1867892;75;20276;-82
2020/12/11 03:29:43;;;;;;;;;;;25.80;68.80;;;;;;1869903;76;20189;-81
2020/12/11 03:32:13;;;;;;;;;;;25.90;69.30;;;;;;1863949;75;20259;-83
2020/12/11 03:34:43;;;;;;;;;;;26.10;68.80;;;;;;1858624;76;20179;-84
2020/12/11 03:37:15;;;;;;;;;;;26.20;68.50;;;;;;1865105;76;20565;-84
2020/12/11 03:39:45;;;;;;;;;;;26.20;68.00;;;;;;1857806;76;20543;-83
2020/12/11 03:42:15;;;;;;;;;;;26.30;67.80;;;;;;1860041;76;20213;-82
2020/12/11 03:44:45;;;;;;;;;;;26.40;67.90;;;;;;1863864;76;20193;-83
2020/12/11 03:47:15;;;;;;;;;;;26.50;67.50;;;;;;1854910;76;20171;-85
2020/12/11 03:49:45;;;;;;;;;;;26.60;67.90;;;;;;1855215;76;20189;-84
2020/12/11 03:52:17;;;;;;;;;;;26.70;67.60;;;;;;1867298;75;20240;-84
2020/12/11 03:54:48;;;;;;;;;;;26.80;67.20;;;;;;1841106;75;20258;-81
2020/12/11 03:57:19;;;;;;;;;;;26.90;67.00;;;;;;1853849;75;20177;-83
2020/12/11 03:59:52;;;;;;;;;;;27.00;66.60;;;;;;1862064;75;20176;-82
2020/12/11 04:02:22;;;;;;;;;;;27.10;66.40;;;;;;1858138;75;20506;-82
2020/12/11 04:04:52;;;;;;;;;;;27.30;66.30;;;;;;1857553;75;20178;-78
2020/12/11 04:07:22;;;;;;;;;;;27.30;66.00;;;;;;1817138;77;20257;-80
2020/12/11 04:09:52;;;;;;;;;;;27.40;65.90;;;;;;1835134;76;20499;-80
2020/12/11 04:12:42;;;;;;;;;;;27.50;65.60;;;;;;1822340;77;20255;-79
2020/12/11 04:15:12;;;;;;;;;;;27.70;65.80;;;;;;1880488;75;20181;-79
2020/12/11 04:17:42;;;;;;;;;;;27.80;65.00;;;;;;1923690;74;20214;-80
2020/12/11 04:20:12;;;;;;;;;;;27.90;64.80;;;;;;1919361;74;20389;-81
2020/12/11 04:22:43;;;;;;;;;;;28.00;63.90;;;;;;1897056;74;20130;-77
2020/12/11 04:25:13;;;;;;;;;;;28.00;64.40;;;;;;1913395;74;20219;-79
2020/12/11 04:27:43;;;;;;;;;;;28.10;64.50;;;;;;1908025;74;20255;-79
2020/12/11 04:30:14;;;;;;;;;;;28.20;64.20;;;;;;1914552;73;20673;-80
2020/12/11 04:32:44;;;;;;;;;;;28.30;63.80;;;;;;1920187;73;20262;-79
2020/12/11 04:35:18;;;;;;;;;;;28.30;62.20;;;;;;1920865;73;20282;-80
2020/12/11 04:37:48;;;;;;;;;;;28.50;63.30;;;;;;1905675;74;20158;-79
2020/12/11 04:40:37;;;;;;;;;;;28.60;63.40;;;;;;1878911;75;20155;-78
2020/12/11 04:43:04;;;;;;;;;;;28.60;62.80;;;;;;1859247;75;20536;-80
2020/12/11 04:45:35;;;;;;;;;;;28.70;62.90;;;;;;1865702;75;20181;-79
2020/12/11 04:48:05;;;;;;;;;;;28.80;62.20;;;;;;1884624;74;20187;-81
2020/12/11 04:50:35;;;;;;;;;;;28.80;60.00;;;;;;1894777;74;20229;-84
2020/12/11 04:53:09;;;;;;;;;;;28.90;61.30;;;;;;1895742;74;20216;-85
2020/12/11 04:55:39;;;;;;;;;;;28.90;61.80;;;;;;1890369;74;20463;-84
2020/12/11 04:58:11;;;;;;;;;;;29.00;61.50;;;;;;1883952;74;20175;-86
2020/12/11 05:00:41;;;;;;;;;;;29.10;59.10;;;;;;1883752;75;20447;-87
2020/12/11 05:03:18;;;;;;;;;;;29.20;60.70;;;;;;1889280;75;20126;-83
2020/12/11 05:05:50;;;;;;;;;;;29.30;61.00;;;;;;1901203;74;20481;-79
2020/12/11 05:08:23;;;;;;;;;;;29.30;60.50;;;;;;1888106;74;20135;-81
2020/12/11 05:10:55;;;;;;;;;;;29.30;59.30;;;;;;1869959;75;20184;-79
2020/12/11 05:13:26;;;;;;;;;;;29.40;60.00;;;;;;1883634;75;20249;-80
2020/12/11 05:15:57;;;;;;;;;;;29.40;60.50;;;;;;1886866;76;20201;-80
2020/12/11 05:18:32;;;;;;;;;;;29.50;61.30;;;;;;1876079;75;20207;-79
2020/12/11 05:21:00;;;;;;;;;;;29.60;60.00;;;;;;1882712;75;20251;-82
2020/12/11 05:23:30;;;;;;;;;;;29.60;59.20;;;;;;1879991;75;20132;-82
2020/12/11 05:26:15;;;;;;;;;;;29.60;57.00;;;;;;1869865;75;20135;-82
2020/12/11 05:28:45;;;;;;;;;;;29.70;58.40;;;;;;1877309;76;20455;-82
2020/12/11 05:31:20;;;;;;;;;;;29.60;57.90;;;;;;1882495;75;20166;-80
2020/12/11 05:33:47;;;;;;;;;;;29.60;57.50;;;;;;1881402;75;20159;-81
2020/12/11 05:36:17;;;;;;;;;;;29.50;58.80;;;;;;1875704;75;20224;-83
2020/12/11 05:38:48;;;;;;;;;;;29.40;58.00;;;;;;1809348;78;20432;-82
2020/12/11 05:41:19;;;;;;;;;;;29.30;59.00;;;;;;1825133;78;20217;-82
2020/12/11 05:43:49;;;;;;;;;;;29.30;58.60;;;;;;1841915;76;20303;-82
2020/12/11 05:46:25;;;;;;;;;;;29.30;58.90;;;;;;1814601;77;20221;-82
2020/12/11 05:48:52;;;;;;;;;;;29.30;57.60;;;;;;1862515;75;20177;-85
2020/12/11 05:51:27;;;;;;;;;;;29.40;58.10;;;;;;1824479;77;20124;-83
2020/12/11 05:53:53;;;;;;;;;;;29.50;57.30;;;;;;1850762;76;20261;-84
2020/12/11 05:56:33;;;;;;;;;;;29.50;57.50;;;;;;1841140;76;20193;-83
2020/12/11 05:59:27;;;;;;;;;;;29.60;57.80;;;;;;1806648;78;20235;-83
2020/12/11 06:01:58;;;;;;;;;;;29.80;56.90;;;;;;1844325;77;20185;-84
2020/12/11 06:04:30;;;;;;;;;;;29.90;57.00;;;;;;1815600;76;20230;-81
2020/12/11 06:07:07;;;;;;;;;;;29.90;56.50;;;;;;1821782;78;20200;-83
2020/12/11 06:09:38;;;;;;;;;;;30.00;56.10;;;;;;1820189;77;20723;-83
2020/12/11 06:12:12;;;;;;;;;;;30.10;56.00;;;;;;1815953;77;20157;-82
2020/12/11 06:15:01;;;;;;;;;;;30.10;55.20;;;;;;1846796;76;20249;-76
2020/12/11 06:17:35;;;;;;;;;;;30.10;56.50;;;;;;1893155;74;20383;-82
2020/12/11 06:20:08;;;;;;;;;;;30.10;57.60;;;;;;1878552;74;20147;-85
2020/12/11 06:22:44;;;;;;;;;;;30.10;57.20;;;;;;1898178;74;20189;-80
2020/12/11 06:25:13;;;;;;;;;;;30.10;56.90;;;;;;1889968;74;20298;-83
2020/12/11 06:27:53;;;;;;;;;;;30.10;57.10;;;;;;1894605;74;20196;-81
2020/12/11 06:30:25;;;;;;;;;;;30.10;55.50;;;;;;1899708;74;20136;-81
2020/12/11 06:33:01;;;;;;;;;;;30.10;56.00;;;;;;1894942;74;20162;-81
2020/12/11 06:35:37;;;;;;;;;;;30.10;55.40;;;;;;1906018;74;20165;-82
2020/12/11 06:38:08;;;;;;;;;;;30.10;56.10;;;;;;1890116;74;20187;-82
2020/12/11 06:40:43;;;;;;;;;;;30.00;56.00;;;;;;1851497;74;20231;-80
2020/12/11 06:43:26;;;;;;;;;;;30.00;56.10;;;;;;1887300;75;20171;-83
2020/12/11 06:45:57;;;;;;;;;;;29.90;56.40;;;;;;1878690;75;20218;-83
2020/12/11 06:48:28;;;;;;;;;;;29.90;56.20;;;;;;1881032;75;20232;-84
2020/12/11 06:51:00;;;;;;;;;;;29.90;56.80;;;;;;1874019;74;20214;-82
2020/12/11 06:53:38;;;;;;;;;;;29.90;55.90;;;;;;1845011;76;20194;-87
2020/12/11 06:56:29;;;;;;;;;;;29.90;56.90;;;;;;1843911;76;20273;-83
2020/12/11 06:59:11;;;;;;;;;;;29.90;56.30;;;;;;1830113;76;20171;-84
2020/12/11 07:02:09;;;;;;;;;;;30.00;55.60;;;;;;1847397;77;20285;-84
2020/12/11 07:04:42;;;;;;;;;;;30.10;55.40;;;;;;1830536;76;20207;-84
2020/12/11 07:07:14;;;;;;;;;;;30.10;56.00;;;;;;1813338;79;20158;-84
2020/12/11 07:09:44;;;;;;;;;;;30.20;56.70;;;;;;1791159;79;20240;-84
2020/12/11 07:12:18;;;;;;;;;;;30.30;57.50;;;;;;1836547;77;20170;-83
2020/12/11 07:14:49;;;;;;;;;;;30.30;55.30;;;;;;1802514;78;20136;-83
2020/12/11 07:17:19;;;;;;;;;;;30.30;54.90;;;;;;1865858;75;20177;-84
2020/12/11 07:19:51;;;;;;;;;;;30.30;56.20;;;;;;1885865;75;20219;-78
2020/12/11 07:22:21;;;;;;;;;;;30.30;56.40;;;;;;1830336;77;20238;-78
2020/12/11 07:24:56;;;;;;;;;;;30.30;56.60;;;;;;1827877;77;20136;-79
2020/12/11 07:27:28;;;;;;;;;;;30.30;57.00;;;;;;1863422;75;20212;-79
2020/12/11 07:30:11;;;;;;;;;;;30.20;55.10;;;;;;1879811;75;20243;-78
2020/12/11 07:32:30;;;;;;;;;;;30.20;55.30;;;;;;1879816;75;20209;-78
2020/12/11 07:35:05;;;;;;;;;;;30.20;56.10;;;;;;1880033;76;20125;-77
2020/12/11 07:37:32;;;;;;;;;;;30.20;55.60;;;;;;1868345;76;20197;-79
2020/12/11 07:40:05;;;;;;;;;;;30.20;56.30;;;;;;1881158;76;20651;-77
2020/12/11 07:42:35;;;;;;;;;;;30.20;56.40;;;;;;1885880;76;20178;-78
2020/12/11 07:45:06;;;;;;;;;;;30.30;56.70;;;;;;1880319;76;20211;-78
2020/12/11 07:47:36;;;;;;;;;;;30.20;56.50;;;;;;1885464;76;20248;-78
2020/12/11 07:50:11;;;;;;;;;;;30.20;56.90;;;;;;1883684;76;20218;-78
2020/12/11 07:52:41;;;;;;;;;;;30.20;56.70;;;;;;1886814;76;20247;-79
2020/12/11 07:55:11;;;;;;;;;;;30.20;56.90;;;;;;1880364;76;20167;-78
2020/12/11 07:57:42;;;;;;;;;;;30.20;56.70;;;;;;1892234;75;20244;-78
2020/12/11 08:00:16;;;;;;;;;;;30.20;56.70;;;;;;1882637;76;20118;-77
2020/12/11 08:02:47;;;;;;;;;;;30.20;56.80;;;;;;1880259;76;20188;-78
2020/12/11 08:05:25;;;;;;;;;;;30.10;56.80;;;;;;1880316;75;20261;-78
2020/12/11 08:08:02;;;;;;;;;;;30.00;57.00;;;;;;1875459;76;20240;-78
2020/12/11 08:10:31;;;;;;;;;;;30.00;57.20;;;;;;1890161;75;20290;-79
2020/12/11 08:13:03;;;;;;;;;;;29.90;57.10;;;;;;1879779;76;20234;-79
2020/12/11 08:15:35;;;;;;;;;;;29.80;57.10;;;;;;1857466;77;20189;-79
2020/12/11 08:18:06;;;;;;;;;;;29.80;57.40;;;;;;1803295;79;20239;-79
2020/12/11 08:20:38;;;;;;;;;;;29.70;57.40;;;;;;1815365;78;20202;-78
2020/12/11 08:23:12;;;;;;;;;;;29.70;57.60;;;;;;1800117;79;20503;-79
2020/12/11 08:25:44;;;;;;;;;;;29.70;57.70;;;;;;1839153;77;20181;-77
2020/12/11 08:28:22;;;;;;;;;;;29.70;57.60;;;;;;1827154;78;20486;-79
2020/12/11 08:30:50;;;;;;;;;;;29.70;57.40;;;;;;1858726;76;20203;-79
2020/12/11 08:33:20;;;;;;;;;;;29.70;57.40;;;;;;1856532;76;20200;-79
2020/12/11 08:36:25;;;;;;;;;;;29.70;57.10;;;;;;1787965;79;20209;-77
2020/12/11 08:38:59;;;;;;;;;;;29.70;56.90;;;;;;1852343;77;20190;-78
2020/12/11 08:41:32;;;;;;;;;;;29.70;57.30;;;;;;1815660;78;20261;-77
2020/12/11 08:44:04;;;;;;;;;;;29.70;57.30;;;;;;1798866;79;20227;-78
2020/12/11 08:51:34;;;;;;;;;;;29.60;57.30;;;;;;1854505;76;20226;-80
2020/12/11 08:54:07;;;;;;;;;;;29.60;57.60;;;;;;1862084;76;20201;-79
2020/12/11 08:56:36;;;;;;;;;;;29.70;57.50;;;;;;1858394;76;20253;-80
2020/12/11 08:59:06;;;;;;;;;;;29.70;57.20;;;;;;1861410;76;20170;-79
2020/12/11 09:01:36;;;;;;;;;;;29.70;57.40;;;;;;1864384;76;20164;-79
2020/12/11 09:04:06;;;;;;;;;;;29.70;57.50;;;;;;1798637;79;20188;-79
2020/12/11 09:06:36;;;;;;;;;;;29.70;57.10;;;;;;1852112;76;20188;-78
2020/12/11 09:09:06;;;;;;;;;;;29.70;56.20;;;;;;1828025;77;20195;-78
2020/12/11 09:11:36;;;;;;;;;;;29.70;56.70;;;;;;1822879;77;20188;-79
2020/12/11 09:14:06;;;;;;;;;;;29.70;57.10;;;;;;1848024;76;20179;-79
2020/12/11 09:16:36;;;;;;;;;;;29.70;56.90;;;;;;1814609;77;20261;-80
2020/12/11 09:19:06;;;;;;;;;;;29.70;56.90;;;;;;1827886;77;20246;-78
2020/12/11 09:21:37;;;;;;;;;;;29.70;56.90;;;;;;1800463;78;20274;-78
2020/12/11 09:24:08;;;;;;;;;;;29.70;58.00;;;;;;1782917;80;20174;-78
2020/12/11 09:26:41;;;;;;;;;;;29.70;57.20;;;;;;1812176;78;20244;-78
2020/12/11 09:31:48;;;;;;;;;;;29.60;57.30;;;;;;1786375;80;20508;-78
2020/12/11 09:34:19;;;;;;;;;;;29.60;57.10;;;;;;1871716;75;20186;-78
2020/12/11 09:36:52;;;;;;;;;;;29.50;56.90;;;;;;1899854;75;20147;-78
2020/12/11 09:39:23;;;;;;;;;;;29.50;57.10;;;;;;1889474;75;20135;-77
2020/12/11 09:42:04;;;;;;;;;;;29.50;57.20;;;;;;1861402;75;20228;-78
2020/12/11 09:47:11;;;;;;;;;;;29.40;57.20;;;;;;1825743;77;20124;-78
2020/12/11 09:52:19;;;;;;;;;;;29.30;57.30;;;;;;1786717;78;20739;-78
2020/12/11 09:55:28;;;;;;;;;;;29.30;57.60;;;;;;1832190;77;20213;-79
2020/12/11 10:00:58;;;;;;;;;;;29.10;57.00;;;;;;1751199;81;20222;-79
2020/12/11 10:06:46;;;;;;;;;;;29.10;57.30;;;;;;1725024;82;20238;-79
2020/12/11 10:09:36;;;;;;;;;;;29.00;57.80;;;;;;1690778;83;21053;-79
2020/12/11 10:12:16;;;;;;;;;;;29.00;58.00;;;;;;1686161;84;20351;-80
2020/12/11 10:15:06;;;;;;;;;;;28.90;58.10;;;;;;1688818;83;20192;-81
2020/12/11 10:17:33;;;;;;;;;;;28.90;58.20;;;;;;1733687;79;20200;-79
2020/12/11 10:20:23;;;;;;;;;;;28.80;58.40;;;;;;1785590;79;20193;-76
2020/12/11 10:22:53;;;;;;;;;;;28.80;58.40;;;;;;1781205;79;20943;-77
2020/12/11 10:25:26;;;;;;;;;;;28.80;58.50;;;;;;1763443;79;20571;-80
2020/12/11 10:27:59;;;;;;;;;;;28.70;58.50;;;;;;1785121;79;20242;-80
2020/12/11 10:30:31;;;;;;;;;;;28.70;58.60;;;;;;1787533;79;20250;-78
2020/12/11 10:33:03;;;;;;;;;;;28.70;58.70;;;;;;1777797;79;20510;-81
2020/12/11 10:35:34;;;;;;;;;;;28.60;58.70;;;;;;1777402;79;20216;-78
2020/12/11 10:38:04;;;;;;;;;;;28.60;58.90;;;;;;1821106;77;20179;-80
2020/12/11 10:40:33;;;;;;;;;;;28.60;59.00;;;;;;1831779;77;20200;-79
2020/12/11 10:43:04;;;;;;;;;;;28.60;59.10;;;;;;1836217;77;20224;-78
2020/12/11 10:45:35;;;;;;;;;;;28.50;59.10;;;;;;1857699;77;20278;-79
2020/12/11 10:48:06;;;;;;;;;;;28.50;59.20;;;;;;1864851;76;20266;-79
2020/12/11 10:50:37;;;;;;;;;;;28.50;59.30;;;;;;1849675;77;20201;-77
2020/12/11 10:53:07;;;;;;;;;;;28.40;59.70;;;;;;1853459;77;20233;-79
2020/12/11 10:55:40;;;;;;;;;;;28.40;59.50;;;;;;1850688;77;20217;-79
2020/12/11 10:58:10;;;;;;;;;;;28.40;59.70;;;;;;1852039;77;20265;-78
2020/12/11 11:00:40;;;;;;;;;;;28.30;60.00;;;;;;1898726;75;20372;-77
2020/12/11 11:03:11;;;;;;;;;;;28.30;60.10;;;;;;1893948;75;20244;-78
2020/12/11 11:05:43;;;;;;;;;;;28.30;60.60;;;;;;1896801;74;20186;-77
2020/12/11 11:08:14;;;;;;;;;;;28.20;60.60;;;;;;1900480;74;20546;-77
2020/12/11 11:10:48;;;;;;;;;;;28.20;60.50;;;;;;1906460;74;20203;-78
2020/12/11 11:14:09;;;;;;;;;;;28.10;61.00;;;;;;1893001;74;20509;-77
2020/12/11 11:15:57;;;;;;;;;;;28.10;60.90;;;;;;1888638;74;20540;-78
2020/12/11 11:21:24;;;;;;;;;;;28.00;61.40;;;;;;1833479;76;20230;-78
2020/12/11 11:28:34;;;;;;;;;;;27.90;62.50;;;;;;1863080;75;20451;-78
2020/12/11 11:31:04;;;;;;;;;;;27.90;62.30;;;;;;1858256;75;20191;-77
2020/12/11 11:33:35;;;;;;;;;;;27.80;63.40;;;;;;1872115;75;20464;-77
2020/12/11 11:36:09;;;;;;;;;;;27.80;64.20;;;;;;1862015;75;20217;-79
2020/12/11 11:38:39;;;;;;;;;;;27.70;63.90;;;;;;1849439;77;20229;-79
2020/12/11 11:41:09;;;;;;;;;;;27.70;62.70;;;;;;1859339;75;20183;-78
2020/12/11 11:43:58;;;;;;;;;;;27.70;62.20;;;;;;1868118;75;20463;-78
2020/12/11 11:46:11;;;;;;;;;;;27.70;61.70;;;;;;1871252;75;20180;-78
2020/12/11 11:48:44;;;;;;;;;;;27.70;62.50;;;;;;1883803;75;20184;-78
2020/12/11 11:51:22;;;;;;;;;;;27.70;61.60;;;;;;1863732;75;20211;-78
2020/12/11 11:53:46;;;;;;;;;;;27.70;61.60;;;;;;1858703;75;20288;-79
2020/12/11 11:56:18;;;;;;;;;;;27.70;63.30;;;;;;1868141;75;20245;-79
2020/12/11 11:58:48;;;;;;;;;;;27.70;62.40;;;;;;1869850;75;20177;-78
2020/12/11 12:01:19;;;;;;;;;;;27.70;62.40;;;;;;1836063;77;20209;-78
2020/12/11 12:03:53;;;;;;;;;;;27.70;62.50;;;;;;1857536;77;20183;-79
2020/12/11 12:06:24;;;;;;;;;;;27.70;62.00;;;;;;1865368;75;20229;-77
2020/12/11 12:08:54;;;;;;;;;;;27.60;61.70;;;;;;1850452;77;20194;-78
2020/12/11 12:11:23;;;;;;;;;;;27.60;61.60;;;;;;1866145;75;20240;-77
2020/12/11 12:13:54;;;;;;;;;;;27.60;61.60;;;;;;1873498;75;20207;-78
2020/12/11 12:16:25;;;;;;;;;;;27.60;61.60;;;;;;1847139;75;20209;-77
2020/12/11 12:21:55;;;;;;;;;;;27.50;61.50;;;;;;1831569;77;20170;-79
2020/12/11 12:29:15;;;;;;;;;;;27.50;61.80;;;;;;1882935;75;20183;-78
2020/12/11 12:31:57;;;;;;;;;;;27.50;62.20;;;;;;1867658;76;20162;-79
2020/12/11 12:39:49;;;;;;;;;;;27.50;62.60;;;;;;1874316;76;20227;-79
2020/12/11 12:44:24;;;;;;;;;;;27.40;63.20;;;;;;1870991;76;20534;-79
2020/12/11 12:46:55;;;;;;;;;;;27.30;62.90;;;;;;1800536;78;20175;-79
2020/12/11 12:49:25;;;;;;;;;;;27.30;62.70;;;;;;1814058;79;20137;-77
2020/12/11 12:51:55;;;;;;;;;;;27.30;62.40;;;;;;1808167;77;20167;-77
2020/12/11 12:54:25;;;;;;;;;;;27.30;62.30;;;;;;1888411;75;20194;-77
2020/12/11 12:56:58;;;;;;;;;;;27.30;62.20;;;;;;1858866;77;20157;-77
2020/12/11 13:04:38;;;;;;;;;;;27.30;62.10;;;;;;1879162;75;20155;-79
2020/12/11 13:07:06;;;;;;;;;;;27.30;62.10;;;;;;1843760;76;20211;-79
2020/12/11 13:09:32;;;;;;;;;;;27.20;62.00;;;;;;1874400;75;20177;-79
2020/12/11 13:12:02;;;;;;;;;;;27.20;62.00;;;;;;1882275;76;20238;-78
2020/12/11 13:14:32;;;;;;;;;;;27.20;62.30;;;;;;1875878;76;20234;-78
2020/12/11 13:17:02;;;;;;;;;;;27.20;62.10;;;;;;1870932;75;20607;-78
2020/12/11 13:19:34;;;;;;;;;;;27.20;62.10;;;;;;1846375;75;20695;-78
2020/12/11 13:27:11;;;;;;;;;;;27.20;62.40;;;;;;1844257;77;20225;-78
2020/12/11 13:29:38;;;;;;;;;;;27.10;62.40;;;;;;1834626;76;20205;-78
2020/12/11 13:32:08;;;;;;;;;;;27.10;62.60;;;;;;1842558;77;20214;-79
2020/12/11 13:36:28;;;;;;;;;;;27.10;63.00;;;;;;1839072;76;20603;-79
2020/12/11 13:37:30;;;;;;;;;;;27.10;63.60;;;;;;1793523;78;20229;-81
2020/12/11 13:40:01;;;;;;;;;;;27.10;63.90;;;;;;1788632;79;20270;-78
2020/12/11 13:42:31;;;;;;;;;;;27.00;63.60;;;;;;1790482;79;20259;-80
2020/12/11 13:45:01;;;;;;;;;;;27.00;63.60;;;;;;1822259;78;20268;-79
2020/12/11 13:47:31;;;;;;;;;;;27.00;63.40;;;;;;1814582;78;20224;-79
2020/12/11 13:50:01;;;;;;;;;;;26.90;63.40;;;;;;1809800;78;20219;-79
2020/12/11 13:52:50;;;;;;;;;;;27.00;63.40;;;;;;1811759;78;20267;-77
2020/12/11 13:55:21;;;;;;;;;;;26.90;63.90;;;;;;1811864;78;20270;-76
2020/12/11 13:57:52;;;;;;;;;;;26.90;63.50;;;;;;1793667;78;20282;-77
2020/12/11 14:00:23;;;;;;;;;;;26.90;64.50;;;;;;1789047;79;20296;-77
2020/12/11 14:02:57;;;;;;;;;;;26.80;63.40;;;;;;1792850;79;20586;-77
2020/12/11 14:05:24;;;;;;;;;;;26.80;63.60;;;;;;1790038;78;20314;-77
2020/12/11 14:07:54;;;;;;;;;;;26.80;63.90;;;;;;1794461;78;20277;-77
2020/12/11 14:10:24;;;;;;;;;;;26.80;64.40;;;;;;1792628;78;20282;-77
2020/12/11 14:12:54;;;;;;;;;;;26.70;64.50;;;;;;1799524;79;20261;-77
2020/12/11 14:15:25;;;;;;;;;;;26.70;64.40;;;;;;1795159;78;20225;-77
2020/12/11 14:23:00;;;;;;;;;;;26.60;64.80;;;;;;1789483;78;20273;-77
2020/12/11 14:25:28;;;;;;;;;;;26.60;64.60;;;;;;1832570;77;20211;-77
2020/12/11 14:27:58;;;;;;;;;;;26.50;65.10;;;;;;1829532;77;20231;-77
2020/12/11 14:30:28;;;;;;;;;;;26.50;64.80;;;;;;1850787;77;20221;-78
2020/12/11 14:32:58;;;;;;;;;;;26.50;65.00;;;;;;1856669;75;20154;-78
2020/12/11 14:35:28;;;;;;;;;;;26.50;65.00;;;;;;1855504;77;20222;-77
2020/12/11 14:38:04;;;;;;;;;;;26.40;65.30;;;;;;1860802;76;20459;-76
2020/12/11 14:40:29;;;;;;;;;;;26.40;65.60;;;;;;1859137;76;20241;-77
2020/12/11 14:42:59;;;;;;;;;;;26.40;66.20;;;;;;1857763;76;20209;-76
2020/12/11 14:45:29;;;;;;;;;;;26.30;66.70;;;;;;1858050;76;20263;-77
2020/12/11 14:47:59;;;;;;;;;;;26.30;66.60;;;;;;1859118;76;20227;-77
2020/12/11 14:50:29;;;;;;;;;;;26.30;67.70;;;;;;1857724;77;20206;-78
2020/12/11 14:52:59;;;;;;;;;;;26.30;67.70;;;;;;1819150;78;20223;-77
2020/12/11 14:55:29;;;;;;;;;;;26.20;67.70;;;;;;1810477;77;20207;-77
2020/12/11 14:57:59;;;;;;;;;;;26.30;67.90;;;;;;1790141;78;20232;-78
2020/12/11 15:00:29;;;;;;;;;;;26.20;67.20;;;;;;1803616;79;20227;-77
2020/12/11 15:02:59;;;;;;;;;;;26.30;68.00;;;;;;1804002;79;20211;-78
2020/12/11 15:05:29;;;;;;;;;;;26.20;68.00;;;;;;1840759;77;20217;-78
2020/12/11 15:08:03;;;;;;;;;;;26.20;67.30;;;;;;1835741;77;20276;-78
2020/12/11 15:10:33;;;;;;;;;;;26.20;67.60;;;;;;1839909;77;20532;-78
2020/12/11 15:13:03;;;;;;;;;;;26.20;66.90;;;;;;1839729;78;20162;-78
2020/12/11 15:15:37;;;;;;;;;;;26.20;67.00;;;;;;1818951;78;20228;-78
2020/12/11 15:18:05;;;;;;;;;;;26.20;67.40;;;;;;1809954;78;20137;-78
2020/12/11 15:20:35;;;;;;;;;;;26.20;66.60;;;;;;1882669;75;20357;-78
2020/12/11 15:23:08;;;;;;;;;;;26.20;66.70;;;;;;1878223;76;20241;-76
2020/12/11 15:25:38;;;;;;;;;;;26.20;66.90;;;;;;1880787;75;20270;-78
2020/12/11 15:28:30;;;;;;;;;;;;;;;;;;;;;
2020/12/11 15:31:06;;;;;;;;;;;26.10;66.90;;;;;;1878445;75;20498;-77
2020/12/11 15:33:43;;;;;;;;;;;26.10;66.90;;;;;;1873374;76;20225;-77
2020/12/11 15:36:21;;;;;;;;;;;;;;;;;;;;;
2020/12/11 15:39:07;;;;;;;;;;;26.10;66.80;;;;;;1871318;75;20185;-77
2020/12/11 15:41:37;;;;;;;;;;;26.10;66.80;;;;;;1879052;76;20252;-76
2020/12/11 15:44:08;;;;;;;;;;;26.10;66.70;;;;;;1875753;75;20447;-77